Time;durP1;ratioP1;P1;durP2;ratioP2;P2;SDS_P1;SDS_P2;PMS_P1;PMS_P2;Temp;Humidity;BMP_temperature;BMP_pressure;BME280_temperature;BME280_humidity;BME280_pressure;Samples;Min_cycle;Max_cycle;Signal;HPM_P1;HPM_P2
2022/06/18 00:00:18;;;;;;;6.83;4.57;;;21.40;15.80;;;;;;2615679;54;20982;-77
2022/06/18 00:06:08;;;;;;;5.90;5.20;;;21.30;15.00;;;;;;2615584;54;20413;-77
2022/06/18 00:18:11;;;;;;;6.33;4.83;;;21.40;13.40;;;;;;2619536;54;20476;-78
2022/06/18 00:23:59;;;;;;;5.80;4.03;;;21.40;13.40;;;;;;2618533;54;21149;-77
2022/06/18 00:33:10;;;;;;;4.70;4.30;;;21.60;13.50;;;;;;2619136;39;20806;-78
2022/06/18 00:38:58;;;;;;;11.00;4.83;;;21.80;10.70;;;;;;2619050;54;20419;-77
2022/06/18 00:44:53;;;;;;;5.03;4.63;;;21.80;10.70;;;;;;2618950;54;20445;-80
2022/06/18 01:17:56;;;;;;;5.77;4.43;;;22.20;9.00;;;;;;2622251;54;20407;-81
2022/06/18 01:23:48;;;;;;;4.97;4.47;;;22.10;8.90;;;;;;2618880;54;20576;-82
2022/06/18 01:39:50;;;;;;;4.30;4.00;;;22.00;10.00;;;;;;2618482;54;20485;-83
2022/06/18 01:45:39;;;;;;;5.33;4.83;;;21.70;10.70;;;;;;2618799;47;20413;-81
2022/06/18 01:54:53;;;;;;;5.03;4.20;;;22.00;8.80;;;;;;2618582;39;20864;-82
2022/06/18 02:00:45;;;;;;;6.63;4.23;;;22.10;7.50;;;;;;2619187;54;20530;-83
2022/06/18 02:06:34;;;;;;;6.90;4.33;;;22.30;6.80;;;;;;2614831;54;20415;-80
2022/06/18 02:12:25;;;;;;;14.03;4.07;;;22.30;6.40;;;;;;2613060;54;20380;-78
2022/06/18 02:18:15;;;;;;;4.70;4.27;;;22.40;5.70;;;;;;2613328;54;21036;-77
2022/06/18 02:27:24;;;;;;;5.97;3.90;;;22.50;5.40;;;;;;2612144;54;20394;-80
2022/06/18 02:43:27;;;;;;;4.70;4.30;;;22.30;6.20;;;;;;2613161;54;20540;-80
2022/06/18 02:49:15;;;;;;;4.77;4.27;;;22.20;7.20;;;;;;2613590;54;20127;-79
2022/06/18 03:17:40;;;;;;;4.87;4.43;;;21.80;9.00;;;;;;2613702;54;20388;-80
2022/06/18 03:23:27;;;;;;;8.90;4.53;;;21.90;8.70;;;;;;2613007;39;20616;-80
2022/06/18 03:39:23;;;;;;;5.27;4.33;;;21.70;9.80;;;;;;2614496;54;20562;-80
2022/06/18 03:45:11;;;;;;;4.87;4.47;;;21.90;9.50;;;;;;2614858;54;20422;-81
2022/06/18 03:50:58;;;;;;;6.83;4.20;;;21.80;9.80;;;;;;2615015;39;20639;-80
2022/06/18 03:56:46;;;;;;;5.13;4.03;;;21.80;9.90;;;;;;2615044;54;20392;-80
2022/06/18 04:02:33;;;;;;;4.53;4.20;;;21.90;10.10;;;;;;2614962;54;20684;-80
2022/06/18 04:08:20;;;;;;;5.57;4.77;;;21.90;10.80;;;;;;2617113;54;20680;-80
2022/06/18 04:14:08;;;;;;;5.40;4.90;;;22.10;10.60;;;;;;2617409;54;20168;-80
2022/06/18 04:19:56;;;;;;;6.60;3.60;;;22.00;10.90;;;;;;2618280;54;20158;-81
2022/06/18 04:25:44;;;;;;;7.07;4.73;;;22.20;10.10;;;;;;2617618;54;20153;-79
2022/06/18 04:28:30;;;;;;;13.00;5.13;;;22.30;10.10;;;;;;2617891;39;21114;-80
2022/06/18 04:30:56;;;;;;;5.90;4.63;;;22.40;9.60;;;;;;2614857;54;20151;-80
2022/06/18 04:36:44;;;;;;;5.83;5.23;;;22.60;9.10;;;;;;2614543;39;21705;-82
2022/06/18 04:42:32;;;;;;;7.20;4.50;;;22.40;10.50;;;;;;2615580;46;20601;-81
2022/06/18 04:48:19;;;;;;;5.87;4.97;;;22.80;8.50;;;;;;2613815;54;20126;-78
2022/06/18 04:54:07;;;;;;;6.97;6.20;;;23.00;8.50;;;;;;2614925;39;20582;-82
2022/06/18 04:59:55;;;;;;;8.93;5.80;;;23.40;6.20;;;;;;2615523;54;20124;-81
2022/06/18 05:05:43;;;;;;;7.47;6.67;;;23.90;5.20;;;;;;2615677;31;20613;-80
2022/06/18 05:11:30;;;;;;;8.27;6.90;;;24.00;4.30;;;;;;2615376;54;20154;-81
2022/06/18 05:17:24;;;;;;;5.70;5.20;;;24.20;3.80;;;;;;2614438;39;20550;-80
2022/06/18 05:23:14;;;;;;;5.73;5.23;;;24.20;4.80;;;;;;2615322;54;20963;-81
2022/06/18 05:33:01;;;;;;;6.77;6.17;;;24.50;2.90;;;;;;2614422;54;20391;-79
2022/06/18 05:38:51;;;;;;;8.27;5.93;;;24.80;2.30;;;;;;2614618;54;20399;-81
2022/06/18 05:44:38;;;;;;;9.40;5.90;;;25.10;1.40;;;;;;2614587;54;20408;-81
2022/06/18 05:50:26;;;;;;;8.20;5.80;;;25.10;1.50;;;;;;2616104;31;20845;-81
2022/06/18 05:56:14;;;;;;;6.77;6.10;;;25.50;1.00;;;;;;2613273;54;20243;-81
2022/06/18 06:02:02;;;;;;;6.00;5.50;;;25.30;1.00;;;;;;2611643;54;20385;-81
2022/06/18 06:07:50;;;;;;;6.27;5.73;;;25.70;1.00;;;;;;2614597;39;20932;-79
2022/06/18 06:13:38;;;;;;;10.37;6.13;;;25.80;1.00;;;;;;2613287;54;20129;-79
2022/06/18 06:19:26;;;;;;;7.00;5.33;;;26.30;1.00;;;;;;2614438;54;20123;-80
2022/06/18 06:25:14;;;;;;;5.70;5.30;;;26.80;1.00;;;;;;2614279;54;20122;-80
2022/06/18 06:31:18;;;;;;;6.60;5.17;;;26.80;1.00;;;;;;2614097;54;20259;-81
2022/06/18 06:37:06;;;;;;;5.87;5.13;;;27.00;1.00;;;;;;2612753;54;20404;-80
2022/06/18 06:42:56;;;;;;;6.67;4.73;;;27.30;1.00;;;;;;2613941;39;20698;-80
2022/06/18 06:52:04;;;;;;;8.13;4.90;;;27.80;1.00;;;;;;2614598;39;20934;-80
2022/06/18 06:57:52;;;;;;;6.70;4.77;;;27.70;1.00;;;;;;2615425;39;20517;-80
2022/06/18 07:03:39;;;;;;;9.13;6.07;;;27.80;1.00;;;;;;2615172;54;20707;-79
2022/06/18 07:09:27;;;;;;;11.37;6.00;;;28.40;1.00;;;;;;2617475;54;20663;-81
2022/06/18 07:15:19;;;;;;;6.80;6.13;;;28.60;1.00;;;;;;2617801;54;20165;-82
2022/06/18 07:21:15;;;;;;;7.43;5.10;;;28.70;1.00;;;;;;2616499;54;20409;-81
2022/06/18 07:27:22;;;;;;;8.73;5.50;;;29.00;1.00;;;;;;2615147;54;20490;-81
2022/06/18 07:43:27;;;;;;;8.67;5.70;;;29.40;1.00;;;;;;2615107;39;20808;-80
2022/06/18 07:49:16;;;;;;;11.67;6.40;;;29.70;1.00;;;;;;2614654;54;20999;-81
2022/06/18 07:58:27;;;;;;;6.13;5.57;;;29.80;1.00;;;;;;2614315;54;20383;-79
2022/06/18 08:04:14;;;;;;;8.23;5.93;;;29.80;1.00;;;;;;2614211;54;20434;-79
2022/06/18 08:10:02;;;;;;;10.83;6.70;;;30.30;1.00;;;;;;2614117;54;20168;-81
2022/06/18 08:15:50;;;;;;;11.67;6.43;;;31.10;1.00;;;;;;2613918;54;20472;-81
2022/06/18 08:21:42;;;;;;;10.93;6.70;;;30.70;1.00;;;;;;2615623;54;20147;-81
2022/06/18 08:27:30;;;;;;;7.23;5.93;;;30.40;1.00;;;;;;2614878;54;20476;-81
2022/06/18 08:33:18;;;;;;;8.93;6.10;;;30.70;1.00;;;;;;2615523;46;20457;-80
2022/06/18 08:39:06;;;;;;;7.40;6.40;;;31.20;1.00;;;;;;2615540;54;20435;-79
2022/06/18 09:09:00;;;;;;;9.10;7.80;;;32.10;1.00;;;;;;2615163;54;20920;-81
2022/06/18 09:21:22;;;;;;;7.00;6.40;;;32.20;1.00;;;;;;2615154;54;20385;-82
2022/06/18 09:37:43;;;;;;;6.87;6.20;;;32.90;1.00;;;;;;2614611;54;20426;-82
2022/06/18 09:50:29;;;;;;;10.70;7.20;;;33.50;1.00;;;;;;2615035;54;20411;-80
2022/06/18 09:59:42;;;;;;;9.37;6.97;;;34.50;1.00;;;;;;2614526;54;20488;-82
2022/06/18 10:12:01;;;;;;;11.70;7.30;;;34.80;1.00;;;;;;2614159;54;20419;-82
2022/06/18 10:27:43;;;;;;;7.30;6.60;;;33.90;1.00;;;;;;2614546;54;20395;-81
2022/06/18 10:43:55;;;;;;;7.80;7.10;;;34.50;1.00;;;;;;2614136;54;20368;-81
2022/06/18 10:49:42;;;;;;;7.90;6.53;;;35.00;1.00;;;;;;2614323;54;20395;-83
2022/06/18 10:55:29;;;;;;;12.67;6.60;;;34.40;1.00;;;;;;2614318;54;20126;-82
2022/06/18 11:08:26;;;;;;;16.43;7.87;;;34.50;1.00;;;;;;2613440;54;20444;-82
2022/06/18 11:17:36;;;;;;;13.80;7.37;;;34.90;1.00;;;;;;2612268;39;20830;-81
2022/06/18 11:26:56;;;;;;;9.90;7.73;;;35.30;1.00;;;;;;2613477;54;20375;-82
2022/06/18 11:32:47;;;;;;;13.47;6.83;;;34.80;1.00;;;;;;2613869;54;20991;-81
2022/06/18 11:38:36;;;;;;;13.23;7.47;;;35.20;1.00;;;;;;2613036;54;20519;-84
2022/06/18 11:44:30;;;;;;;11.40;7.50;;;34.50;1.00;;;;;;2613954;54;20475;-82
2022/06/18 11:50:26;;;;;;;6.80;6.10;;;35.30;1.00;;;;;;2613188;54;20967;-81
2022/06/18 12:06:25;;;;;;;10.90;6.67;;;35.70;1.00;;;;;;2612856;54;20383;-82
2022/06/18 12:35:49;;;;;;;14.43;7.60;;;36.20;1.00;;;;;;2613059;54;20423;-79
2022/06/18 12:41:42;;;;;;;12.23;7.10;;;35.60;1.00;;;;;;2613914;54;20428;-79
2022/06/18 12:47:29;;;;;;;11.87;7.43;;;36.10;1.00;;;;;;2613544;54;20440;-78
2022/06/18 13:14:00;;;;;;;13.40;7.03;;;36.50;1.00;;;;;;2614703;54;20412;-79
2022/06/18 13:42:31;;;;;;;10.80;6.67;;;36.10;1.00;;;;;;2614990;54;20414;-79
2022/06/18 13:48:41;;;;;;;9.90;7.23;;;36.10;1.00;;;;;;2615528;54;20435;-78
2022/06/18 14:01:11;;;;;;;7.90;7.10;;;35.50;1.00;;;;;;2614524;54;21025;-81
2022/06/18 14:07:02;;;;;;;13.10;7.90;;;35.90;1.00;;;;;;2612565;54;21799;-78
2022/06/18 14:26:39;;;;;;;10.27;6.60;;;35.70;1.00;;;;;;2612630;54;20976;-78
2022/06/18 15:16:27;;;;;;;15.40;8.13;;;35.60;1.00;;;;;;2614999;54;21126;-81
2022/06/18 15:55:41;;;;;;;12.27;7.60;;;36.10;1.00;;;;;;2612469;54;21097;-82
2022/06/18 16:01:29;;;;;;;12.83;8.17;;;36.60;1.00;;;;;;2612921;54;20471;-83
2022/06/18 16:07:17;;;;;;;9.90;8.57;;;36.70;1.00;;;;;;2613272;54;20383;-82
2022/06/18 16:13:16;;;;;;;9.33;7.67;;;36.00;1.00;;;;;;2612824;54;20421;-82
2022/06/18 16:19:04;;;;;;;10.73;7.80;;;35.80;1.00;;;;;;2613740;54;20415;-82
2022/06/18 16:24:52;;;;;;;12.83;7.30;;;35.70;1.00;;;;;;2614604;54;20135;-83
2022/06/18 16:30:41;;;;;;;10.70;7.50;;;36.00;1.00;;;;;;2614144;54;20503;-77
2022/06/18 16:36:30;;;;;;;15.73;8.17;;;36.00;1.00;;;;;;2614986;46;20903;-78
2022/06/18 16:42:30;;;;;;;13.57;8.77;;;35.40;1.00;;;;;;2616540;54;20389;-77
2022/06/18 16:48:27;;;;;;;14.03;10.33;;;35.90;1.00;;;;;;2615290;39;20763;-78
2022/06/18 16:54:37;;;;;;;20.83;10.07;;;35.90;1.00;;;;;;2614081;54;20397;-78
2022/06/18 17:00:27;;;;;;;12.50;7.30;;;35.60;1.00;;;;;;2613162;54;20510;-82
2022/06/18 17:06:52;;;;;;;11.30;8.10;;;35.30;1.00;;;;;;2613056;54;20399;-83
2022/06/18 17:09:22;;;;;;;19.63;8.50;;;34.70;1.00;;;;;;2613143;47;20418;-84
2022/06/18 17:15:09;;;;;;;14.17;7.63;;;34.60;1.00;;;;;;2615054;54;20541;-82
2022/06/18 17:21:01;;;;;;;13.57;9.93;;;34.30;1.00;;;;;;2615750;54;20396;-82
2022/06/18 17:43:17;;;;;;;15.40;9.87;;;33.00;1.00;;;;;;2616006;54;20401;-82
2022/06/18 17:49:05;;;;;;;11.17;9.93;;;33.00;1.00;;;;;;2615459;54;20385;-82
2022/06/18 17:58:30;;;;;;;17.03;10.20;;;32.70;1.00;;;;;;2615131;54;20422;-81
2022/06/18 18:04:28;;;;;;;10.97;9.73;;;32.50;1.00;;;;;;2616179;39;20648;-83
2022/06/18 18:10:16;;;;;;;12.17;10.07;;;32.00;1.00;;;;;;2614257;54;20397;-81
2022/06/18 18:16:04;;;;;;;11.90;10.20;;;31.70;1.00;;;;;;2614107;54;20243;-81
2022/06/18 18:21:52;;;;;;;12.20;10.80;;;31.60;1.00;;;;;;2614939;54;20389;-82
2022/06/18 18:27:40;;;;;;;15.13;10.50;;;31.30;1.00;;;;;;2615286;54;20154;-83
2022/06/18 18:36:51;;;;;;;17.83;10.47;;;30.90;1.00;;;;;;2616491;54;20401;-82
2022/06/18 18:39:17;;;;;;;12.40;9.70;;;30.50;1.00;;;;;;2614361;47;20403;-83
2022/06/18 18:41:42;;;;;;;14.27;10.17;;;30.40;1.00;;;;;;2614919;47;20451;-83
2022/06/18 18:47:31;;;;;;;15.43;8.90;;;30.00;1.00;;;;;;2616159;54;20379;-82
2022/06/18 18:53:18;;;;;;;16.33;9.17;;;30.00;1.00;;;;;;2615600;54;20428;-84
2022/06/18 18:59:06;;;;;;;14.67;10.30;;;29.80;1.00;;;;;;2615150;54;20158;-82
2022/06/18 19:08:18;;;;;;;13.13;10.63;;;29.50;1.00;;;;;;2615991;54;20992;-82
2022/06/18 19:14:06;;;;;;;19.23;10.57;;;29.20;1.00;;;;;;2617041;54;20520;-82
2022/06/18 19:19:55;;;;;;;14.27;9.70;;;29.00;1.00;;;;;;2616732;46;20151;-83
2022/06/18 19:25:44;;;;;;;11.87;9.70;;;28.70;1.00;;;;;;2617993;54;20418;-84
2022/06/18 19:31:33;;;;;;;17.43;10.20;;;28.50;1.00;;;;;;2618101;54;20385;-82
2022/06/18 19:37:21;;;;;;;14.70;8.97;;;28.30;1.00;;;;;;2617424;54;20431;-83
2022/06/18 19:46:41;;;;;;;12.77;8.80;;;28.00;1.00;;;;;;2615971;54;20404;-82
2022/06/18 19:52:29;;;;;;;14.93;9.07;;;27.70;1.20;;;;;;2613646;54;20381;-83
2022/06/18 19:58:16;;;;;;;15.97;8.63;;;27.70;1.70;;;;;;2613812;54;20426;-82
2022/06/18 20:04:03;;;;;;;11.87;9.60;;;27.50;2.10;;;;;;2615740;39;20519;-83
2022/06/18 20:09:50;;;;;;;12.27;9.73;;;27.40;3.40;;;;;;2616257;54;20148;-82
2022/06/18 20:15:37;;;;;;;10.47;9.30;;;27.40;3.50;;;;;;2615720;54;20125;-83
2022/06/18 20:24:47;;;;;;;15.97;9.10;;;27.20;4.20;;;;;;2613080;54;20520;-83
2022/06/18 20:30:34;;;;;;;11.77;9.07;;;27.00;4.90;;;;;;2615516;54;20404;-82
2022/06/18 20:46:43;;;;;;;18.23;9.33;;;26.70;7.20;;;;;;2614493;54;20400;-82
2022/06/18 20:52:31;;;;;;;13.43;9.50;;;26.60;7.70;;;;;;2613031;54;20171;-82
2022/06/18 20:58:18;;;;;;;9.57;8.63;;;26.50;8.90;;;;;;2612816;54;20789;-83
2022/06/18 21:04:05;;;;;;;11.53;9.50;;;26.40;9.40;;;;;;2615182;54;20139;-81
2022/06/18 21:09:53;;;;;;;10.50;9.40;;;26.40;10.10;;;;;;2615303;54;20158;-82
2022/06/18 21:15:41;;;;;;;12.87;9.50;;;26.10;11.50;;;;;;2615931;54;20408;-81
2022/06/18 21:24:50;;;;;;;12.17;9.00;;;25.90;14.10;;;;;;2618123;54;20407;-82
2022/06/18 21:30:38;;;;;;;11.03;8.53;;;25.80;15.50;;;;;;2619167;54;20395;-83
2022/06/18 21:46:41;;;;;;;14.10;10.40;;;25.50;19.50;;;;;;2619695;54;20532;-81
2022/06/18 21:52:29;;;;;;;14.43;9.30;;;25.40;20.80;;;;;;2620446;54;20132;-83
2022/06/18 21:58:21;;;;;;;16.60;10.10;;;25.30;22.70;;;;;;2621930;54;20231;-83
2022/06/18 22:04:09;;;;;;;10.53;9.53;;;25.10;25.00;;;;;;2617838;54;20407;-84
2022/06/18 22:09:56;;;;;;;13.43;10.33;;;25.10;27.00;;;;;;2617050;54;20150;-81
2022/06/18 22:21:50;;;;;;;11.80;10.37;;;24.90;29.90;;;;;;2620521;54;20402;-81
2022/06/18 22:27:38;;;;;;;11.77;10.53;;;24.80;34.90;;;;;;2619909;54;20130;-82
2022/06/18 22:33:26;;;;;;;12.07;11.00;;;24.70;41.70;;;;;;2621533;46;20333;-82
2022/06/18 22:59:40;;;;;;;9.57;7.90;;;23.80;75.40;;;;;;2617387;39;20694;-82
2022/06/18 23:06:04;;;;;;;11.10;7.90;;;23.70;81.70;;;;;;2617097;54;20433;-80
2022/06/18 23:18:42;;;;;;;8.30;7.60;;;23.30;93.90;;;;;;2617298;54;20379;-82
2022/06/18 23:24:29;;;;;;;8.03;7.33;;;23.20;97.10;;;;;;2617388;54;20423;-81
2022/06/18 23:30:17;;;;;;;17.67;9.10;;;23.10;99.50;;;;;;2614788;54;20378;-81
2022/06/18 23:36:06;;;;;;;9.23;7.47;;;23.00;99.90;;;;;;2615907;54;20134;-82
2022/06/18 23:41:53;;;;;;;11.60;7.77;;;22.90;99.90;;;;;;2617601;54;20418;-82
2022/06/18 23:51:10;;;;;;;8.80;7.30;;;22.70;99.90;;;;;;2617664;39;20694;-81
2022/06/18 23:57:02;;;;;;;13.37;6.53;;;22.60;99.90;;;;;;2616846;54;20408;-82
